createdAt,value
2018-12-17T00:01:09.389Z,37.15
2018-12-17T00:03:39.458Z,35.67
2018-12-17T00:06:09.703Z,35.60
2018-12-17T00:08:39.795Z,35.23
2018-12-17T00:11:10.252Z,36.30
2018-12-17T00:13:40.400Z,34.90
2018-12-17T00:16:10.455Z,37.90
2018-12-17T00:18:40.469Z,37.13
2018-12-17T00:21:11.493Z,38.17
2018-12-17T00:23:41.526Z,35.80
2018-12-17T00:26:12.279Z,40.27
2018-12-17T00:28:42.300Z,40.03
2018-12-17T00:31:12.352Z,37.95
2018-12-17T00:33:42.560Z,35.92
2018-12-17T00:36:12.511Z,35.57
2018-12-17T00:38:43.032Z,33.23
2018-12-17T00:41:13.090Z,34.10
2018-12-17T00:43:43.235Z,31.77
2018-12-17T00:46:13.234Z,33.10
2018-12-17T00:48:43.470Z,34.70
2018-12-17T00:51:13.450Z,33.13
2018-12-17T00:53:43.571Z,32.83
2018-12-17T00:56:13.516Z,32.20
2018-12-17T00:58:43.494Z,30.40
2018-12-17T01:01:14.020Z,31.55
2018-12-17T01:03:44.111Z,32.23
2018-12-17T01:06:14.312Z,30.88
2018-12-17T01:08:44.307Z,32.67
2018-12-17T01:11:14.246Z,30.47
2018-12-17T01:13:44.215Z,31.63
2018-12-17T01:16:14.258Z,32.07
2018-12-17T01:18:44.210Z,30.40
2018-12-17T01:21:14.356Z,31.83
2018-12-17T01:23:44.647Z,31.47
2018-12-17T01:26:14.763Z,30.55
2018-12-17T01:28:45.711Z,30.60
2018-12-17T01:31:15.676Z,30.03
2018-12-17T01:33:45.658Z,31.25
2018-12-17T01:36:15.634Z,31.07
2018-12-17T01:38:45.910Z,29.80
2018-12-17T01:41:15.982Z,32.23
2018-12-17T01:43:45.971Z,31.20
2018-12-17T01:46:15.923Z,31.00
2018-12-17T01:48:46.184Z,28.20
2018-12-17T01:51:16.714Z,30.40
2018-12-17T01:53:46.868Z,31.67
2018-12-17T01:56:16.824Z,31.43
2018-12-17T01:58:47.867Z,29.03
2018-12-17T02:01:18.111Z,28.67
2018-12-17T02:03:48.239Z,30.37
2018-12-17T02:06:18.390Z,30.80
2018-12-17T02:08:48.436Z,31.07
2018-12-17T02:11:18.383Z,30.48
2018-12-17T02:13:48.511Z,30.37
2018-12-17T02:16:18.590Z,30.00
2018-12-17T02:18:48.607Z,28.97
2018-12-17T02:21:18.675Z,30.05
2018-12-17T02:23:49.250Z,32.58
2018-12-17T02:26:19.282Z,30.53
2018-12-17T02:28:49.254Z,32.97
2018-12-17T02:31:19.577Z,31.10
2018-12-17T02:33:49.552Z,31.00
2018-12-17T02:36:19.517Z,30.40
2018-12-17T02:38:49.544Z,30.60
2018-12-17T02:41:19.566Z,30.13
2018-12-17T02:43:49.659Z,30.80
2018-12-17T02:46:19.712Z,29.40
2018-12-17T02:48:49.726Z,29.02
2018-12-17T02:51:19.761Z,29.87
2018-12-17T02:53:49.761Z,28.70
2018-12-17T02:56:19.718Z,28.27
2018-12-17T02:58:49.853Z,29.80
2018-12-17T03:01:19.948Z,28.15
2018-12-17T03:03:49.935Z,28.33
2018-12-17T03:06:19.882Z,29.53
2018-12-17T03:08:49.840Z,31.45
2018-12-17T03:11:20.125Z,29.73
2018-12-17T03:13:50.247Z,29.43
2018-12-17T03:16:20.215Z,31.13
2018-12-17T03:18:50.216Z,30.30
2018-12-17T03:21:20.275Z,31.25
2018-12-17T03:23:50.266Z,31.37
2018-12-17T03:26:20.312Z,31.80
2018-12-17T03:28:51.914Z,30.17
2018-12-17T03:31:22.322Z,29.10
2018-12-17T03:33:52.275Z,29.87
2018-12-17T03:36:22.231Z,31.00
2018-12-17T03:38:52.201Z,30.70
2018-12-17T03:41:22.286Z,32.25
2018-12-17T03:43:52.325Z,31.33
2018-12-17T03:46:22.360Z,32.13
2018-12-17T03:48:52.323Z,30.67
2018-12-17T03:51:22.319Z,33.37
2018-12-17T03:53:52.281Z,32.90
2018-12-17T03:56:22.388Z,34.80
2018-12-17T03:58:59.087Z,34.10
2018-12-17T04:01:24.307Z,33.50
2018-12-17T04:03:54.503Z,32.07
2018-12-17T04:06:24.497Z,33.50
2018-12-17T04:08:54.595Z,32.35
2018-12-17T04:11:24.637Z,35.45
2018-12-17T04:13:54.601Z,33.67
2018-12-17T04:16:24.654Z,34.10
2018-12-17T04:18:54.667Z,34.43
2018-12-17T04:21:29.143Z,32.37
2018-12-17T04:23:59.103Z,34.77
2018-12-17T04:26:29.290Z,33.43
2018-12-17T04:29:06.569Z,34.40
2018-12-17T04:31:31.983Z,35.10
2018-12-17T04:34:02.020Z,33.60
2018-12-17T04:36:32.001Z,35.70
2018-12-17T04:39:03.222Z,32.88
2018-12-17T04:41:33.296Z,35.08
2018-12-17T04:44:03.547Z,33.80
2018-12-17T04:46:33.652Z,35.77
2018-12-17T04:49:03.710Z,42.20
2018-12-17T04:51:34.196Z,40.23
2018-12-17T04:54:04.367Z,37.50
2018-12-17T04:56:34.492Z,35.97
2018-12-17T04:59:04.494Z,35.87
2018-12-17T05:01:35.383Z,35.95
2018-12-17T05:04:05.395Z,35.50
2018-12-17T05:06:35.472Z,36.03
2018-12-17T05:09:08.422Z,36.67
2018-12-17T05:11:42.230Z,35.40
2018-12-17T05:14:12.310Z,36.20
2018-12-17T05:16:42.486Z,36.03
2018-12-17T05:19:12.491Z,36.93
2018-12-17T05:21:43.144Z,34.57
2018-12-17T05:24:13.213Z,34.20
2018-12-17T05:26:43.275Z,34.60
2018-12-17T05:29:13.579Z,35.67
2018-12-17T05:31:43.647Z,36.13
2018-12-17T05:34:13.862Z,37.03
2018-12-17T05:36:43.911Z,35.10
2018-12-17T05:39:14.569Z,35.77
2018-12-17T05:41:44.686Z,35.67
2018-12-17T05:44:14.963Z,37.43
2018-12-17T05:46:45.460Z,36.80
2018-12-17T05:49:15.460Z,34.67
2018-12-17T05:51:45.458Z,34.97
2018-12-17T05:54:15.727Z,38.20
2018-12-17T05:56:45.819Z,34.63
2018-12-17T05:59:16.415Z,37.13
2018-12-17T06:01:46.624Z,37.48
2018-12-17T06:04:16.639Z,38.27
2018-12-17T06:06:46.759Z,36.77
2018-12-17T06:09:16.957Z,34.88
2018-12-17T06:11:47.146Z,36.40
2018-12-17T06:14:17.109Z,35.90
2018-12-17T06:16:47.119Z,35.80
2018-12-17T06:19:18.694Z,36.33
2018-12-17T06:21:49.752Z,35.40
2018-12-17T06:24:19.683Z,39.37
2018-12-17T06:26:49.930Z,42.93
2018-12-17T06:29:19.936Z,43.15
2018-12-17T06:31:50.213Z,41.17
2018-12-17T06:34:20.279Z,44.63
2018-12-17T06:36:50.323Z,42.53
2018-12-17T06:39:20.339Z,42.65
2018-12-17T06:41:51.030Z,42.07
2018-12-17T06:44:20.983Z,44.97
2018-12-17T06:46:51.028Z,44.93
2018-12-17T06:49:21.050Z,45.58
2018-12-17T06:51:52.222Z,46.87
2018-12-17T06:54:23.069Z,43.53
2018-12-17T06:56:53.207Z,45.77
2018-12-17T06:59:23.437Z,45.17
2018-12-17T07:01:53.896Z,44.93
2018-12-17T07:04:24.096Z,46.27
2018-12-17T07:06:54.072Z,47.03
2018-12-17T07:09:24.163Z,47.70
2018-12-17T07:11:54.219Z,45.87
2018-12-17T07:14:24.302Z,49.30
2018-12-17T07:16:54.272Z,46.13
2018-12-17T07:19:24.245Z,51.10
2018-12-17T07:21:54.261Z,66.67
2018-12-17T07:24:24.243Z,80.42
2018-12-17T07:26:54.296Z,45.10
2018-12-17T07:29:24.324Z,44.10
2018-12-17T07:31:54.455Z,43.23
2018-12-17T07:34:24.564Z,42.05
2018-12-17T07:36:54.781Z,44.83
2018-12-17T07:39:25.378Z,41.48
2018-12-17T07:41:55.327Z,42.30
2018-12-17T07:44:25.556Z,43.27
2018-12-17T07:46:56.000Z,43.45
2018-12-17T07:49:26.451Z,43.63
2018-12-17T07:51:56.414Z,46.18
2018-12-17T07:54:26.433Z,44.13
2018-12-17T07:56:56.438Z,48.67
2018-12-17T07:59:26.416Z,44.50
2018-12-17T08:01:56.384Z,45.12
2018-12-17T08:04:26.401Z,48.83
2018-12-17T08:06:56.415Z,47.83
2018-12-17T08:09:26.430Z,45.85
2018-12-17T08:11:56.412Z,46.17
2018-12-17T08:14:26.497Z,47.03
2018-12-17T08:16:57.199Z,48.50
2018-12-17T08:19:27.202Z,47.37
2018-12-17T08:21:57.175Z,46.60
2018-12-17T08:24:28.575Z,47.40
2018-12-17T08:26:58.715Z,45.37
2018-12-17T08:29:28.675Z,47.85
2018-12-17T08:31:58.754Z,44.40
2018-12-17T08:34:28.889Z,46.07
2018-12-17T08:36:58.905Z,40.60
2018-12-17T08:39:28.870Z,42.98
2018-12-17T08:41:58.914Z,42.57
2018-12-17T08:44:28.925Z,37.53
2018-12-17T08:46:58.879Z,39.20
2018-12-17T08:49:28.844Z,39.90
2018-12-17T08:51:58.874Z,36.90
2018-12-17T08:54:28.857Z,37.07
2018-12-17T08:56:58.919Z,34.70
2018-12-17T08:59:28.878Z,39.30
2018-12-17T09:01:58.840Z,37.90
2018-12-17T09:04:30.575Z,34.10
2018-12-17T09:07:00.956Z,36.50
2018-12-17T09:09:30.995Z,36.50
2018-12-17T09:12:01.048Z,36.77
2018-12-17T09:14:31.055Z,36.57
2018-12-17T09:17:01.077Z,35.80
2018-12-17T09:19:31.721Z,36.30
2018-12-17T09:22:01.763Z,34.07
2018-12-17T09:24:31.736Z,32.07
2018-12-17T09:27:01.676Z,32.55
2018-12-17T09:29:31.700Z,32.17
2018-12-17T09:32:01.718Z,33.73
2018-12-17T09:34:32.823Z,30.60
2018-12-17T09:37:04.344Z,30.55
2018-12-17T09:39:34.467Z,31.77
2018-12-17T09:42:04.599Z,31.48
2018-12-17T09:44:34.579Z,30.57
2018-12-17T09:47:04.567Z,29.27
2018-12-17T09:49:34.563Z,30.50
2018-12-17T09:52:04.654Z,28.00
2018-12-17T09:54:34.624Z,28.37
2018-12-17T09:57:04.678Z,28.03
2018-12-17T09:59:34.683Z,29.43
2018-12-17T10:02:04.977Z,27.60
2018-12-17T10:04:35.000Z,26.33
2018-12-17T10:07:05.069Z,25.77
2018-12-17T10:09:35.211Z,22.27
2018-12-17T10:12:05.199Z,22.22
2018-12-17T10:14:35.475Z,23.53
2018-12-17T10:17:05.444Z,22.85
2018-12-17T10:19:35.489Z,22.17
2018-12-17T10:22:05.473Z,22.32
2018-12-17T10:24:35.494Z,24.37
2018-12-17T10:27:05.826Z,22.70
2018-12-17T10:29:36.219Z,24.63
2018-12-17T10:32:06.169Z,24.43
2018-12-17T10:34:36.160Z,26.10
2018-12-17T10:37:06.376Z,28.30
2018-12-17T10:39:36.427Z,29.67
2018-12-17T10:42:06.523Z,31.60
2018-12-17T10:44:36.491Z,31.50
2018-12-17T10:47:06.680Z,30.47
2018-12-17T10:49:36.674Z,31.00
2018-12-17T10:52:06.771Z,30.30
2018-12-17T10:54:36.843Z,32.47
2018-12-17T10:57:07.128Z,36.53
2018-12-17T10:59:37.221Z,29.98
2018-12-17T11:02:14.866Z,31.90
2018-12-17T11:04:50.331Z,34.27
2018-12-17T11:07:20.407Z,33.53
2018-12-17T11:09:50.476Z,33.37
2018-12-17T11:12:20.528Z,32.80
2018-12-17T11:14:50.492Z,35.73
2018-12-17T11:17:20.712Z,35.30
2018-12-17T11:19:50.756Z,32.77
2018-12-17T11:22:20.744Z,34.00
2018-12-17T11:24:50.715Z,34.88
2018-12-17T11:27:20.762Z,34.55
2018-12-17T11:29:50.782Z,37.80
2018-12-17T11:32:20.741Z,39.03
2018-12-17T11:34:50.739Z,39.97
2018-12-17T11:37:20.865Z,42.80
2018-12-17T11:39:50.925Z,42.70
2018-12-17T11:42:21.041Z,42.47
2018-12-17T11:44:51.209Z,45.33
2018-12-17T11:47:21.199Z,44.77
2018-12-17T11:49:51.252Z,49.27
2018-12-17T11:52:21.355Z,49.10
2018-12-17T11:54:51.326Z,49.20
2018-12-17T11:58:29.598Z,47.48
2018-12-17T12:01:03.453Z,45.20
2018-12-17T12:03:35.887Z,47.47
2018-12-17T12:06:06.311Z,46.00
2018-12-17T12:08:38.356Z,46.87
2018-12-17T12:11:08.596Z,46.50
2018-12-17T12:13:38.663Z,50.52
2018-12-17T12:16:08.742Z,48.53
2018-12-17T12:18:39.107Z,44.70
2018-12-17T12:21:10.232Z,45.80
2018-12-17T12:23:41.279Z,44.63
2018-12-17T12:26:11.369Z,44.50
2018-12-17T12:28:41.532Z,44.97
2018-12-17T12:31:11.588Z,43.10
2018-12-17T12:33:41.753Z,44.05
2018-12-17T12:36:12.235Z,43.33
2018-12-17T12:38:42.238Z,43.80
2018-12-17T12:41:12.719Z,43.30
2018-12-17T12:43:43.355Z,46.17
2018-12-17T12:46:14.196Z,46.40
2018-12-17T12:48:44.291Z,43.53
2018-12-17T12:51:15.564Z,40.80
2018-12-17T12:53:46.451Z,40.80
2018-12-17T12:56:16.518Z,41.37
2018-12-17T12:58:46.633Z,42.40
2018-12-17T13:01:16.634Z,41.42
2018-12-17T13:03:46.583Z,41.63
2018-12-17T13:06:16.606Z,39.57
2018-12-17T13:08:46.896Z,38.07
2018-12-17T13:11:17.315Z,40.10
2018-12-17T13:13:47.340Z,38.10
2018-12-17T13:16:17.308Z,41.85
2018-12-17T13:18:47.251Z,38.00
2018-12-17T13:21:17.275Z,37.77
2018-12-17T13:23:47.720Z,40.27
2018-12-17T13:26:17.755Z,42.00
2018-12-17T13:28:47.759Z,44.05
2018-12-17T13:31:17.743Z,46.35
2018-12-17T13:33:47.818Z,46.30
2018-12-17T13:36:18.062Z,49.30
2018-12-17T13:38:48.813Z,48.70
2018-12-17T13:41:18.762Z,48.17
2018-12-17T13:43:48.754Z,51.50
2018-12-17T13:46:18.804Z,49.57
2018-12-17T13:48:49.032Z,48.30
2018-12-17T13:51:24.591Z,48.65
2018-12-17T13:53:58.752Z,45.20
2018-12-17T13:56:29.574Z,46.60
2018-12-17T13:58:59.715Z,52.60
2018-12-17T14:01:29.698Z,50.05
2018-12-17T14:04:01.374Z,45.57
2018-12-17T14:06:35.804Z,49.10
2018-12-17T14:09:07.614Z,45.57
2018-12-17T14:11:37.719Z,46.43
2018-12-17T14:14:07.753Z,48.93
2018-12-17T14:16:43.170Z,50.83
2018-12-17T14:19:19.686Z,45.13
2018-12-17T14:21:57.111Z,47.67
2018-12-17T14:24:27.981Z,47.97
2018-12-17T14:26:58.014Z,48.17
2018-12-17T14:29:28.439Z,47.13
2018-12-17T14:31:58.523Z,43.10
2018-12-17T14:34:28.754Z,44.13
2018-12-17T14:36:59.641Z,41.80
2018-12-17T14:39:29.764Z,41.70
2018-12-17T14:41:59.838Z,39.27
2018-12-17T14:44:35.128Z,41.50
2018-12-17T14:47:05.499Z,43.00
2018-12-17T14:49:36.163Z,41.20
2018-12-17T14:52:06.391Z,40.53
2018-12-17T14:54:37.812Z,43.20
2018-12-17T14:57:08.176Z,38.43
2018-12-17T14:59:38.687Z,38.75
2018-12-17T15:02:08.766Z,39.42
2018-12-17T15:04:39.366Z,38.93
2018-12-17T15:07:09.527Z,38.30
2018-12-17T15:09:39.615Z,35.97
2018-12-17T15:12:09.820Z,38.25
2018-12-17T15:14:40.808Z,33.60
2018-12-17T15:17:12.912Z,33.37
2018-12-17T15:19:43.045Z,33.43
2018-12-17T15:22:13.067Z,32.43
2018-12-17T15:24:45.320Z,33.97
2018-12-17T15:27:15.419Z,32.37
2018-12-17T15:29:46.480Z,31.80
2018-12-17T15:32:16.505Z,31.87
2018-12-17T15:34:47.244Z,39.17
2018-12-17T15:37:18.148Z,34.10
2018-12-17T15:39:48.719Z,31.13
2018-12-17T15:42:19.114Z,30.50
2018-12-17T15:44:49.593Z,28.80
2018-12-17T15:47:19.742Z,33.70
2018-12-17T15:49:50.698Z,31.50
2018-12-17T15:52:20.802Z,31.50
2018-12-17T15:54:51.542Z,29.73
2018-12-17T15:57:25.933Z,27.77
2018-12-17T15:59:57.861Z,29.30
2018-12-17T16:02:28.031Z,27.27
2018-12-17T16:04:58.196Z,28.20
2018-12-17T16:07:29.164Z,26.97
2018-12-17T16:09:59.195Z,24.77
2018-12-17T16:12:29.313Z,24.90
2018-12-17T16:14:59.295Z,25.35
2018-12-17T16:17:29.322Z,25.57
2018-12-17T16:19:59.486Z,24.83
2018-12-17T16:22:29.558Z,26.47
2018-12-17T16:24:59.688Z,25.03
2018-12-17T16:27:30.632Z,28.40
2018-12-17T16:30:02.300Z,26.20
2018-12-17T16:32:32.439Z,26.60
2018-12-17T16:35:02.539Z,25.40
2018-12-17T16:37:33.480Z,25.03
2018-12-17T16:40:04.893Z,27.87
2018-12-17T16:42:35.003Z,27.00
2018-12-17T16:45:06.506Z,26.67
2018-12-17T16:47:37.273Z,28.63
2018-12-17T16:50:09.455Z,28.53
2018-12-17T16:52:39.646Z,28.53
2018-12-17T16:55:09.984Z,27.97
2018-12-17T16:57:39.975Z,28.63
2018-12-17T17:00:10.729Z,29.65
2018-12-17T17:02:41.407Z,29.23
2018-12-17T17:05:11.995Z,28.20
2018-12-17T17:07:41.999Z,27.98
2018-12-17T17:10:12.040Z,31.30
2018-12-17T17:12:42.120Z,30.03
2018-12-17T17:15:16.142Z,30.07
2018-12-17T17:17:46.263Z,30.15
2018-12-17T17:20:20.935Z,29.20
2018-12-17T17:22:50.957Z,31.63
2018-12-17T17:25:22.020Z,32.53
2018-12-17T17:27:52.067Z,30.53
2018-12-17T17:30:22.971Z,30.70
2018-12-17T17:32:53.064Z,32.70
2018-12-17T17:35:23.055Z,31.13
2018-12-17T17:37:53.197Z,31.80
2018-12-17T17:40:23.255Z,32.60
2018-12-17T17:42:53.269Z,32.73
2018-12-17T17:45:24.239Z,35.10
2018-12-17T17:47:54.342Z,32.50
2018-12-17T17:50:24.443Z,33.73
2018-12-17T17:52:54.430Z,33.08
2018-12-17T17:55:24.438Z,32.07
2018-12-17T17:57:54.547Z,34.15
2018-12-17T18:00:26.930Z,34.50
2018-12-17T18:02:57.306Z,34.48
2018-12-17T18:05:27.562Z,34.80
2018-12-17T18:07:57.779Z,33.60
2018-12-17T18:10:28.078Z,31.97
2018-12-17T18:12:58.553Z,32.07
2018-12-17T18:15:28.639Z,33.10
2018-12-17T18:17:58.663Z,32.03
2018-12-17T18:20:28.666Z,32.50
2018-12-17T18:22:58.738Z,34.60
2018-12-17T18:25:28.731Z,33.70
2018-12-17T18:27:58.731Z,35.53
2018-12-17T18:30:28.817Z,35.10
2018-12-17T18:33:00.018Z,33.60
2018-12-17T18:35:30.184Z,34.93
2018-12-17T18:38:00.274Z,35.00
2018-12-17T18:40:30.617Z,35.20
2018-12-17T18:43:00.653Z,34.73
2018-12-17T18:45:30.687Z,33.60
2018-12-17T18:48:00.794Z,31.80
2018-12-17T18:50:30.854Z,36.10
2018-12-17T18:53:01.033Z,35.37
2018-12-17T18:55:31.181Z,36.30
2018-12-17T18:58:01.531Z,35.07
2018-12-17T19:00:31.839Z,36.95
2018-12-17T19:03:01.843Z,35.95
2018-12-17T19:05:32.030Z,36.97
2018-12-17T19:08:02.869Z,37.63
2018-12-17T19:10:38.241Z,35.80
2018-12-17T19:13:08.576Z,37.50
2018-12-17T19:15:38.791Z,35.77
2018-12-17T19:18:08.873Z,36.05
2018-12-17T19:20:38.915Z,36.03
2018-12-17T19:23:09.015Z,34.33
2018-12-17T19:25:38.994Z,39.70
2018-12-17T19:28:09.183Z,36.60
2018-12-17T19:30:39.749Z,37.67
2018-12-17T19:33:10.452Z,34.70
2018-12-17T19:35:40.473Z,39.07
2018-12-17T19:38:10.449Z,38.83
2018-12-17T19:40:40.708Z,38.40
2018-12-17T19:43:11.584Z,40.63
2018-12-17T19:45:41.590Z,42.27
2018-12-17T19:48:11.693Z,40.70
2018-12-17T19:50:41.688Z,41.40
2018-12-17T19:53:12.386Z,40.63
2018-12-17T19:55:42.690Z,40.47
2018-12-17T19:58:13.708Z,39.07
2018-12-17T20:00:44.402Z,39.98
2018-12-17T20:03:14.576Z,40.70
2018-12-17T20:05:45.409Z,40.07
2018-12-17T20:08:15.849Z,39.50
2018-12-17T20:10:50.564Z,36.37
2018-12-17T20:13:20.932Z,35.20
2018-12-17T20:15:51.609Z,36.77
2018-12-17T20:18:21.671Z,39.10
2018-12-17T20:20:51.767Z,39.43
2018-12-17T20:23:21.982Z,40.93
2018-12-17T20:25:51.967Z,41.97
2018-12-17T20:28:22.067Z,39.50
2018-12-17T20:30:52.116Z,38.33
2018-12-17T20:33:22.522Z,41.63
2018-12-17T20:35:52.613Z,39.63
2018-12-17T20:38:22.718Z,39.08
2018-12-17T20:40:52.910Z,36.63
2018-12-17T20:43:23.578Z,35.33
2018-12-17T20:45:53.995Z,36.90
2018-12-17T20:48:24.200Z,36.80
2018-12-17T20:50:55.044Z,34.88
2018-12-17T20:53:25.516Z,36.23
2018-12-17T20:55:55.675Z,34.63
2018-12-17T20:58:25.706Z,35.57
2018-12-17T21:00:55.748Z,35.98
2018-12-17T21:03:26.666Z,34.75
2018-12-17T21:05:56.743Z,35.47
2018-12-17T21:08:27.121Z,34.40
2018-12-17T21:10:57.105Z,35.47
2018-12-17T21:13:28.032Z,34.37
2018-12-17T21:15:58.155Z,33.43
2018-12-17T21:18:28.230Z,32.60
2018-12-17T21:20:58.374Z,33.13
2018-12-17T21:23:29.452Z,31.30
2018-12-17T21:25:59.424Z,34.57
2018-12-17T21:28:29.548Z,33.73
2018-12-17T21:30:59.573Z,32.20
2018-12-17T21:33:29.987Z,40.73
2018-12-17T21:36:00.240Z,35.20
2018-12-17T21:38:30.312Z,33.53
2018-12-17T21:41:00.596Z,33.67
2018-12-17T21:43:36.013Z,32.40
2018-12-17T21:46:02.686Z,28.77
2018-12-17T21:48:32.740Z,29.77
2018-12-17T21:51:02.906Z,27.37
2018-12-17T21:53:32.953Z,29.83
2018-12-17T21:56:04.096Z,30.10
2018-12-17T21:58:34.327Z,30.60
2018-12-17T22:01:04.324Z,29.00
2018-12-17T22:03:34.343Z,31.23
2018-12-17T22:06:04.751Z,29.27
2018-12-17T22:08:34.844Z,29.30
2018-12-17T22:11:05.280Z,29.67
2018-12-17T22:13:35.383Z,28.70
2018-12-17T22:16:05.669Z,30.00
2018-12-17T22:18:35.655Z,30.23
2018-12-17T22:21:05.706Z,31.63
2018-12-17T22:23:36.210Z,30.10
2018-12-17T22:26:06.395Z,29.73
2018-12-17T22:28:36.376Z,29.60
2018-12-17T22:31:06.476Z,29.53
2018-12-17T22:33:36.495Z,28.37
2018-12-17T22:36:06.507Z,29.10
2018-12-17T22:38:37.348Z,29.55
2018-12-17T22:41:07.446Z,27.22
2018-12-17T22:43:37.423Z,30.97
2018-12-17T22:46:07.670Z,26.80
2018-12-17T22:48:37.923Z,28.20
2018-12-17T22:51:08.182Z,27.90
2018-12-17T22:53:38.472Z,30.23
2018-12-17T22:56:08.552Z,34.23
2018-12-17T22:58:42.263Z,38.43
2018-12-17T23:01:10.690Z,39.25
2018-12-17T23:03:40.724Z,42.30
2018-12-17T23:06:10.967Z,41.63
2018-12-17T23:08:47.437Z,40.90
2018-12-17T23:11:30.042Z,40.60
2018-12-17T23:14:11.291Z,47.97
2018-12-17T23:16:52.690Z,50.87
2018-12-17T23:19:21.818Z,42.90
2018-12-17T23:21:51.970Z,42.00
2018-12-17T23:24:21.998Z,39.37
2018-12-17T23:26:51.998Z,43.03
2018-12-17T23:29:21.963Z,41.28
2018-12-17T23:31:54.043Z,39.77
2018-12-17T23:34:24.056Z,41.42
2018-12-17T23:36:54.173Z,41.10
2018-12-17T23:39:24.471Z,38.43
2018-12-17T23:41:54.632Z,41.17
2018-12-17T23:44:24.746Z,40.33
2018-12-17T23:46:54.715Z,38.53
2018-12-17T23:49:24.695Z,40.50
2018-12-17T23:51:54.892Z,38.95
2018-12-17T23:54:25.020Z,40.47
2018-12-17T23:56:55.188Z,39.42
2018-12-17T23:59:25.251Z,39.50
